createdAt,value
2023-01-18T00:02:49.319Z,6.78
2023-01-18T00:05:51.719Z,6.77
2023-01-18T00:08:55.247Z,6.80
2023-01-18T00:11:57.680Z,6.85
2023-01-18T00:15:00.097Z,6.94
2023-01-18T00:18:03.058Z,6.97
2023-01-18T00:21:07.272Z,6.93
2023-01-18T00:24:11.730Z,6.93
2023-01-18T00:27:14.261Z,7.10
2023-01-18T00:30:18.068Z,7.16
2023-01-18T00:33:20.714Z,7.27
2023-01-18T00:36:23.178Z,7.79
2023-01-18T00:39:25.620Z,8.14
2023-01-18T00:42:46.295Z,8.41
2023-01-18T00:45:48.804Z,8.67
2023-01-18T00:48:52.348Z,8.84
2023-01-18T00:51:56.781Z,8.97
2023-01-18T00:55:04.248Z,9.15
2023-01-18T00:58:06.661Z,9.20
2023-01-18T01:01:10.167Z,9.17
2023-01-18T01:04:30.997Z,9.21
2023-01-18T01:07:33.383Z,9.19
2023-01-18T01:10:36.075Z,9.25
2023-01-18T01:13:57.613Z,9.26
2023-01-18T01:17:18.599Z,9.30
2023-01-18T01:20:40.576Z,9.49
2023-01-18T01:24:01.328Z,9.51
2023-01-18T01:27:03.751Z,9.41
2023-01-18T01:30:07.574Z,9.54
2023-01-18T01:33:09.965Z,9.52
2023-01-18T01:36:17.540Z,9.46
2023-01-18T01:39:19.962Z,9.48
2023-01-18T01:42:22.370Z,9.38
2023-01-18T01:45:26.804Z,9.41
2023-01-18T01:48:29.396Z,9.26
2023-01-18T01:51:32.826Z,9.41
2023-01-18T01:54:42.849Z,9.32
2023-01-18T01:57:53.390Z,9.29
2023-01-18T02:00:55.953Z,9.27
2023-01-18T02:04:00.506Z,9.23
2023-01-18T02:07:02.956Z,9.02
2023-01-18T02:10:06.332Z,9.10
2023-01-18T02:13:10.072Z,9.07
2023-01-18T02:16:24.842Z,9.05
2023-01-18T02:19:59.412Z,9.15
2023-01-18T02:23:32.235Z,9.14
2023-01-18T02:26:59.529Z,9.16
2023-01-18T02:30:16.898Z,9.13
2023-01-18T02:33:51.728Z,9.14
2023-01-18T02:37:04.378Z,9.06
2023-01-18T02:40:16.174Z,9.18
2023-01-18T02:43:37.978Z,8.99
2023-01-18T02:46:40.815Z,8.92
2023-01-18T02:49:43.704Z,8.94
2023-01-18T02:52:53.615Z,9.05
2023-01-18T02:56:00.300Z,8.94
2023-01-18T02:59:10.396Z,8.91
2023-01-18T03:02:21.319Z,8.79
2023-01-18T03:05:24.784Z,8.76
2023-01-18T03:08:30.314Z,8.85
2023-01-18T03:12:05.616Z,8.76
2023-01-18T03:15:13.080Z,8.74
2023-01-18T03:18:15.583Z,8.69
2023-01-18T03:21:18.050Z,8.63
2023-01-18T03:24:20.532Z,8.61
2023-01-18T03:27:41.399Z,8.56
2023-01-18T03:31:03.496Z,8.43
2023-01-18T03:34:24.314Z,8.65
2023-01-18T03:37:30.579Z,8.66
2023-01-18T03:40:33.208Z,8.60
2023-01-18T03:43:37.895Z,8.56
2023-01-18T03:46:40.803Z,8.60
2023-01-18T03:49:43.246Z,8.62
2023-01-18T03:52:48.904Z,8.53
2023-01-18T03:55:53.878Z,8.53
2023-01-18T03:58:58.206Z,8.52
2023-01-18T04:02:01.559Z,8.41
2023-01-18T04:05:05.943Z,8.53
2023-01-18T04:08:08.381Z,8.43
2023-01-18T04:11:10.892Z,8.36
2023-01-18T04:14:13.262Z,8.31
2023-01-18T04:17:15.877Z,8.32
2023-01-18T04:20:18.457Z,8.23
2023-01-18T04:23:20.953Z,8.15
2023-01-18T04:26:23.358Z,8.17
2023-01-18T04:29:25.810Z,8.04
2023-01-18T04:32:28.978Z,8.07
2023-01-18T04:35:31.326Z,8.19
2023-01-18T04:38:33.863Z,8.14
2023-01-18T04:41:36.285Z,8.25
2023-01-18T04:44:38.720Z,8.04
2023-01-18T04:47:41.144Z,7.77
2023-01-18T04:50:46.519Z,7.46
2023-01-18T04:53:48.917Z,7.20
2023-01-18T04:56:51.902Z,7.28
2023-01-18T04:59:54.310Z,7.07
2023-01-18T05:02:57.217Z,7.36
2023-01-18T05:05:59.759Z,7.20
2023-01-18T05:09:02.197Z,7.14
2023-01-18T05:12:04.637Z,7.17
2023-01-18T05:15:07.709Z,7.15
2023-01-18T05:18:10.185Z,7.07
2023-01-18T05:21:13.391Z,7.10
2023-01-18T05:24:15.916Z,7.07
2023-01-18T05:27:18.482Z,7.06
2023-01-18T05:30:21.070Z,6.98
2023-01-18T05:33:23.469Z,6.86
2023-01-18T05:36:25.937Z,6.69
2023-01-18T05:39:28.641Z,6.76
2023-01-18T05:42:31.087Z,6.68
2023-01-18T05:45:33.536Z,6.92
2023-01-18T05:48:36.131Z,7.07
2023-01-18T05:51:38.705Z,7.09
2023-01-18T05:54:41.071Z,6.99
2023-01-18T05:57:43.507Z,7.02
2023-01-18T06:00:45.954Z,6.92
2023-01-18T06:03:48.394Z,7.13
2023-01-18T06:06:50.834Z,7.00
2023-01-18T06:09:53.275Z,7.13
2023-01-18T06:12:56.152Z,7.09
2023-01-18T06:16:00.047Z,7.19
2023-01-18T06:19:02.709Z,7.18
2023-01-18T06:22:05.123Z,7.20
2023-01-18T06:25:09.946Z,7.29
2023-01-18T06:28:12.408Z,7.31
2023-01-18T06:31:15.220Z,7.37
2023-01-18T06:34:18.044Z,7.37
2023-01-18T06:37:20.485Z,7.27
2023-01-18T06:40:22.868Z,7.40
2023-01-18T06:43:25.316Z,7.41
2023-01-18T06:46:27.955Z,7.41
2023-01-18T06:49:31.146Z,7.51
2023-01-18T06:52:33.590Z,7.42
2023-01-18T06:55:36.041Z,7.41
2023-01-18T06:58:38.559Z,7.45
2023-01-18T07:01:41.515Z,7.63
2023-01-18T07:04:45.498Z,7.55
2023-01-18T07:07:47.951Z,7.61
2023-01-18T07:10:52.664Z,7.52
2023-01-18T07:13:55.370Z,7.82
2023-01-18T07:16:57.917Z,7.83
2023-01-18T07:20:00.407Z,7.90
2023-01-18T07:23:04.429Z,7.85
2023-01-18T07:26:11.060Z,7.91
2023-01-18T07:29:13.508Z,7.88
2023-01-18T07:32:16.361Z,7.93
2023-01-18T07:35:22.113Z,8.02
2023-01-18T07:38:25.336Z,8.02
2023-01-18T07:41:29.465Z,7.99
2023-01-18T07:44:32.809Z,7.97
2023-01-18T07:47:36.894Z,8.31
2023-01-18T07:50:39.729Z,8.29
2023-01-18T07:53:42.568Z,8.38
2023-01-18T07:56:45.855Z,8.55
2023-01-18T07:59:49.409Z,8.70
2023-01-18T08:02:53.643Z,8.89
2023-01-18T08:05:59.046Z,8.96
2023-01-18T08:09:01.687Z,8.91
2023-01-18T08:12:06.771Z,9.06
2023-01-18T08:15:09.693Z,9.06
2023-01-18T08:18:12.973Z,9.15
2023-01-18T08:21:16.106Z,9.12
2023-01-18T08:24:19.487Z,9.14
2023-01-18T08:27:22.605Z,9.22
2023-01-18T08:30:28.110Z,9.29
2023-01-18T08:33:30.666Z,9.29
2023-01-18T08:36:33.292Z,9.35
2023-01-18T08:39:37.692Z,9.37
2023-01-18T08:42:40.145Z,9.35
2023-01-18T08:45:42.618Z,9.30
2023-01-18T08:48:45.500Z,9.29
2023-01-18T08:51:48.199Z,9.22
2023-01-18T08:54:50.776Z,9.12
2023-01-18T08:57:57.819Z,9.19
2023-01-18T09:01:00.406Z,9.21
2023-01-18T09:04:02.877Z,9.17
2023-01-18T09:07:05.421Z,9.22
2023-01-18T09:10:09.129Z,9.31
2023-01-18T09:13:11.911Z,9.34
2023-01-18T09:16:14.607Z,9.65
2023-01-18T09:19:17.126Z,9.60
2023-01-18T09:22:19.688Z,9.60
2023-01-18T09:25:22.776Z,9.38
2023-01-18T09:28:25.327Z,9.32
2023-01-18T09:31:28.690Z,9.16
2023-01-18T09:34:31.184Z,9.18
2023-01-18T09:37:33.765Z,9.11
2023-01-18T09:40:44.149Z,9.06
2023-01-18T09:43:52.576Z,8.96
2023-01-18T09:47:10.955Z,9.14
2023-01-18T09:50:17.730Z,9.12
2023-01-18T09:53:28.414Z,9.07
2023-01-18T09:56:50.228Z,9.22
2023-01-18T09:59:59.994Z,8.93
2023-01-18T10:03:10.250Z,8.82
2023-01-18T10:06:18.237Z,8.87
2023-01-18T10:09:30.188Z,8.72
2023-01-18T10:12:55.957Z,8.49
2023-01-18T10:15:58.793Z,8.02
2023-01-18T10:19:01.704Z,7.85
2023-01-18T10:22:25.636Z,7.95
2023-01-18T10:25:35.017Z,8.05
2023-01-18T10:28:55.362Z,8.03
2023-01-18T10:32:01.980Z,7.89
2023-01-18T10:35:45.309Z,8.00
2023-01-18T10:38:48.233Z,7.92
2023-01-18T10:41:51.433Z,7.76
2023-01-18T10:44:53.819Z,7.56
2023-01-18T10:47:57.914Z,7.63
2023-01-18T10:51:02.875Z,7.76
2023-01-18T10:54:27.302Z,8.23
2023-01-18T10:57:31.933Z,8.17
2023-01-18T11:00:35.434Z,8.00
2023-01-18T11:03:45.506Z,8.07
2023-01-18T11:06:53.880Z,7.75
2023-01-18T11:10:01.615Z,7.91
2023-01-18T11:13:12.159Z,7.70
2023-01-18T11:16:19.290Z,7.42
2023-01-18T11:19:22.489Z,7.22
2023-01-18T11:22:24.962Z,7.03
2023-01-18T11:25:36.642Z,7.08
2023-01-18T11:28:56.585Z,6.78
2023-01-18T11:32:06.013Z,6.70
2023-01-18T11:35:09.700Z,6.99
2023-01-18T11:38:21.238Z,7.48
2023-01-18T11:41:23.708Z,7.37
2023-01-18T11:44:29.883Z,7.49
2023-01-18T11:47:40.640Z,7.51
2023-01-18T11:50:47.329Z,7.28
2023-01-18T11:53:59.708Z,7.15
2023-01-18T11:57:03.180Z,7.00
2023-01-18T12:00:13.698Z,7.01
2023-01-18T12:03:22.405Z,6.82
2023-01-18T12:06:30.728Z,6.80
2023-01-18T12:09:55.235Z,6.91
2023-01-18T12:13:22.811Z,6.87
2023-01-18T12:16:42.740Z,6.88
2023-01-18T12:20:10.121Z,6.71
2023-01-18T12:23:50.027Z,6.80
2023-01-18T12:26:53.797Z,6.81
2023-01-18T12:30:14.353Z,6.90
2023-01-18T12:33:45.681Z,6.83
2023-01-18T12:37:20.183Z,6.75
2023-01-18T12:40:37.947Z,6.86
2023-01-18T12:43:57.616Z,6.83
2023-01-18T12:47:07.767Z,6.91
2023-01-18T12:50:23.271Z,6.96
2023-01-18T12:54:26.955Z,6.90
2023-01-18T12:57:29.999Z,6.65
2023-01-18T13:00:38.662Z,6.76
2023-01-18T13:03:44.864Z,6.73
2023-01-18T13:06:50.738Z,6.71
2023-01-18T13:09:53.960Z,6.66
2023-01-18T13:12:57.403Z,6.67
2023-01-18T13:16:09.918Z,6.67
2023-01-18T13:19:23.260Z,6.66
2023-01-18T13:22:50.474Z,6.37
2023-01-18T13:26:01.982Z,6.24
2023-01-18T13:29:14.542Z,6.43
2023-01-18T13:32:37.642Z,6.36
2023-01-18T13:35:58.687Z,6.26
2023-01-18T13:39:06.951Z,6.25
2023-01-18T13:42:24.638Z,6.17
2023-01-18T13:45:30.561Z,6.32
2023-01-18T13:48:48.056Z,6.28
2023-01-18T13:51:52.230Z,6.31
2023-01-18T13:54:54.960Z,6.30
2023-01-18T13:57:58.291Z,6.15
2023-01-18T14:01:05.954Z,5.93
2023-01-18T14:04:29.642Z,6.13
2023-01-18T14:07:39.047Z,5.98
2023-01-18T14:10:47.353Z,5.92
2023-01-18T14:13:55.559Z,5.97
2023-01-18T14:17:00.738Z,5.97
2023-01-18T14:20:37.062Z,6.66
2023-01-18T14:24:01.427Z,6.14
2023-01-18T14:27:04.997Z,5.83
2023-01-18T14:30:14.149Z,5.83
2023-01-18T14:33:16.505Z,5.82
2023-01-18T14:36:21.617Z,5.73
2023-01-18T14:39:24.394Z,5.75
2023-01-18T14:42:27.305Z,5.66
2023-01-18T14:45:37.769Z,5.46
2023-01-18T14:48:51.662Z,5.59
2023-01-18T14:51:54.658Z,5.82
2023-01-18T14:54:57.115Z,5.53
2023-01-18T14:58:14.159Z,5.40
2023-01-18T15:01:31.864Z,5.28
2023-01-18T15:04:38.821Z,5.30
2023-01-18T15:07:41.510Z,5.15
2023-01-18T15:10:44.357Z,5.23
2023-01-18T15:13:50.298Z,5.16
2023-01-18T15:16:54.625Z,5.09
2023-01-18T15:19:59.739Z,4.98
2023-01-18T15:23:02.444Z,4.96
2023-01-18T15:26:06.286Z,4.63
2023-01-18T15:29:14.598Z,4.63
2023-01-18T15:32:22.216Z,4.58
2023-01-18T15:38:35.733Z,4.62
2023-01-18T15:41:39.491Z,4.67
2023-01-18T15:44:50.574Z,4.70
2023-01-18T15:47:59.909Z,4.66
2023-01-18T15:51:07.792Z,4.63
2023-01-18T15:54:16.547Z,4.60
2023-01-18T15:57:19.780Z,4.67
2023-01-18T16:00:27.890Z,4.67
2023-01-18T16:04:00.949Z,4.67
2023-01-18T16:07:26.286Z,4.61
2023-01-18T16:10:30.440Z,4.55
2023-01-18T16:13:36.261Z,4.27
2023-01-18T16:16:42.260Z,4.37
2023-01-18T16:19:47.564Z,4.37
2023-01-18T16:22:53.664Z,4.44
2023-01-18T16:26:03.867Z,4.32
2023-01-18T16:29:08.188Z,4.18
2023-01-18T16:32:22.948Z,4.39
2023-01-18T16:35:25.658Z,4.41
2023-01-18T16:38:28.244Z,4.35
2023-01-18T16:41:32.304Z,4.39
2023-01-18T16:44:36.153Z,4.26
2023-01-18T16:47:38.850Z,4.37
2023-01-18T16:50:42.716Z,4.38
2023-01-18T16:53:45.761Z,4.30
2023-01-18T16:56:48.917Z,4.30
2023-01-18T16:59:51.409Z,4.21
2023-01-18T17:02:53.945Z,4.23
2023-01-18T17:05:56.540Z,4.09
2023-01-18T17:08:58.950Z,4.05
2023-01-18T17:12:01.378Z,4.27
2023-01-18T17:15:04.105Z,4.32
2023-01-18T17:18:08.360Z,4.27
2023-01-18T17:21:11.985Z,4.23
2023-01-18T17:24:15.197Z,4.30
2023-01-18T17:27:18.906Z,4.27
2023-01-18T17:30:22.171Z,3.99
2023-01-18T17:33:25.486Z,3.17
2023-01-18T17:36:28.072Z,2.95
2023-01-18T17:39:43.840Z,3.00
2023-01-18T17:42:52.908Z,3.05
2023-01-18T17:46:01.451Z,2.87
2023-01-18T17:49:04.568Z,2.57
2023-01-18T17:52:07.646Z,2.39
2023-01-18T17:55:12.163Z,2.42
2023-01-18T17:58:14.918Z,2.54
2023-01-18T18:01:17.766Z,2.54
2023-01-18T18:04:20.461Z,2.51
2023-01-18T18:07:22.906Z,2.44
2023-01-18T18:10:25.323Z,2.42
2023-01-18T18:13:29.562Z,2.43
2023-01-18T18:16:34.442Z,2.42
2023-01-18T18:19:41.370Z,2.61
2023-01-18T18:22:44.344Z,2.66
2023-01-18T18:25:48.101Z,2.54
2023-01-18T18:28:50.582Z,2.29
2023-01-18T18:31:53.397Z,2.27
2023-01-18T18:34:56.002Z,2.28
2023-01-18T18:44:38.703Z,2.55
2023-01-18T18:47:41.545Z,2.48
2023-01-18T18:50:44.048Z,2.67
2023-01-18T18:53:46.478Z,2.77
2023-01-18T18:56:49.122Z,2.49
2023-01-18T18:59:51.518Z,2.50
2023-01-18T19:02:59.013Z,2.52
2023-01-18T19:06:01.865Z,2.68
2023-01-18T19:09:05.706Z,2.87
2023-01-18T19:12:08.670Z,2.90
2023-01-18T19:15:11.571Z,2.88
2023-01-18T19:18:14.883Z,2.71
2023-01-18T19:21:18.447Z,2.63
2023-01-18T19:24:21.567Z,2.52
2023-01-18T19:27:24.664Z,2.52
2023-01-18T19:30:27.665Z,2.53
2023-01-18T19:33:30.436Z,2.56
2023-01-18T19:36:34.064Z,2.55
2023-01-18T19:39:36.796Z,2.52
2023-01-18T19:42:39.991Z,2.33
2023-01-18T19:45:42.704Z,2.11
2023-01-18T19:48:46.852Z,1.89
2023-01-18T19:51:51.770Z,2.02
2023-01-18T19:54:54.587Z,1.95
2023-01-18T19:57:58.265Z,1.95
2023-01-18T20:01:10.597Z,2.07
2023-01-18T20:04:13.760Z,2.12
2023-01-18T20:07:16.710Z,2.01
2023-01-18T20:10:20.386Z,1.92
2023-01-18T20:13:23.345Z,1.97
2023-01-18T20:16:26.141Z,2.05
2023-01-18T20:19:28.563Z,1.95
2023-01-18T20:22:31.544Z,1.96
2023-01-18T20:25:34.172Z,2.06
2023-01-18T20:28:37.278Z,2.11
2023-01-18T20:31:41.058Z,2.00
2023-01-18T20:34:47.012Z,2.07
2023-01-18T20:37:50.126Z,1.85
2023-01-18T20:40:54.698Z,2.02
2023-01-18T20:43:58.124Z,2.00
2023-01-18T20:47:00.811Z,2.02
2023-01-18T20:50:04.646Z,2.16
2023-01-18T20:53:08.002Z,2.21
2023-01-18T20:56:27.893Z,2.11
2023-01-18T20:59:31.820Z,2.38
2023-01-18T21:02:34.430Z,2.50
2023-01-18T21:05:37.138Z,2.66
2023-01-18T21:08:39.983Z,2.64
2023-01-18T21:11:42.717Z,2.76
2023-01-18T21:14:46.389Z,3.00
2023-01-18T21:17:48.866Z,3.30
2023-01-18T21:20:56.142Z,3.42
2023-01-18T21:23:59.407Z,3.56
2023-01-18T21:27:01.758Z,3.73
2023-01-18T21:30:04.511Z,3.69
2023-01-18T21:33:09.886Z,3.75
2023-01-18T21:36:15.055Z,3.86
2023-01-18T21:39:25.228Z,3.93
2023-01-18T21:42:47.197Z,3.69
2023-01-18T21:45:55.513Z,3.77
2023-01-18T21:49:02.750Z,3.79
2023-01-18T21:52:24.125Z,3.69
2023-01-18T21:55:26.584Z,3.82
2023-01-18T21:58:47.280Z,3.85
2023-01-18T22:01:49.987Z,3.62
2023-01-18T22:05:03.539Z,3.84
2023-01-18T22:08:06.074Z,3.92
2023-01-18T22:11:08.483Z,3.91
2023-01-18T22:14:11.360Z,3.64
2023-01-18T22:17:13.918Z,3.54
2023-01-18T22:20:17.075Z,3.50
2023-01-18T22:23:19.470Z,3.42
2023-01-18T22:26:23.307Z,3.43
2023-01-18T22:29:25.699Z,3.76
2023-01-18T22:32:28.120Z,3.94
2023-01-18T22:35:31.463Z,3.95
2023-01-18T22:38:33.981Z,3.98
2023-01-18T22:41:36.425Z,3.94
2023-01-18T22:44:38.816Z,4.07
2023-01-18T22:47:41.244Z,3.96
2023-01-18T22:50:44.358Z,3.94
2023-01-18T22:53:47.984Z,4.05
2023-01-18T22:56:50.458Z,4.05
2023-01-18T22:59:52.877Z,4.05
2023-01-18T23:02:55.328Z,4.12
2023-01-18T23:05:59.449Z,4.07
2023-01-18T23:09:01.970Z,4.12
2023-01-18T23:12:04.703Z,3.99
2023-01-18T23:15:25.940Z,4.12
2023-01-18T23:18:28.724Z,4.06
2023-01-18T23:21:31.167Z,4.16
2023-01-18T23:24:37.424Z,4.16
2023-01-18T23:27:39.884Z,4.33
2023-01-18T23:30:42.271Z,4.35
2023-01-18T23:33:45.071Z,4.31
2023-01-18T23:36:47.492Z,4.32
2023-01-18T23:40:08.647Z,4.34
2023-01-18T23:43:29.644Z,4.40
2023-01-18T23:46:50.474Z,4.37
2023-01-18T23:50:11.565Z,4.34
2023-01-18T23:53:32.485Z,4.48
2023-01-18T23:56:35.030Z,4.39
2023-01-18T23:59:37.788Z,4.33
